This demonstration page uses our WeatherBlox Daily Observations layout. Learn more.

39.29038, -76.61219

Hourly Observations for March 20, 2019

Temp ( °F °C ) Dew Point ( °F °C ) Humidity (%) Winds ( mph kmh ) Pressure ( in mb ) Visibility ( mi km ) Precip ( " mm )
12:54 am 00:54 undefined 42 5.6 17 -8.3 36 36 undefined N/A 30.4 1030 N/A 0 0
1:54 am 01:54 undefined 41 5 23 -5 49 49 undefined N/A 30.4 1030 N/A 0 0
2:54 am 02:54 undefined 39 3.9 23 -5 53 53 undefined N/A 30.4 1030 N/A 0 0
3:54 am 03:54 undefined 40 4.4 26 -3.3 58 58 undefined N/A 30.39 1029 N/A 0 0
4:54 am 04:54 undefined 39 3.9 26 -3.3 60 60 undefined N/A 30.38 1029 N/A 0 0
5:54 am 05:54 undefined 38 3.3 26 -3.3 62 62 undefined N/A 30.39 1029 N/A 0 0
6:54 am 06:54 undefined 39 3.9 26 -3.3 60 60 undefined N/A 30.4 1029 N/A 0 0
7:54 am 07:54 undefined 40 4.4 27 -2.8 60 60 undefined N/A 30.4 1030 N/A 0 0
8:54 am 08:54 undefined 42 5.6 28 -2.2 58 58 undefined N/A 30.4 1030 N/A 0 0
9:54 am 09:54 undefined 45 7.2 29 -1.7 54 54 undefined N/A 30.4 1030 N/A 0 0
11:54 am 11:54 undefined 48 8.9 26 -3.3 42 42 undefined N/A 30.39 1029 N/A 0 0
1:54 pm 13:54 undefined 50 10 21 -6.1 32 32 undefined N/A 30.34 1027 N/A 0 0
2:54 pm 14:54 undefined 51 10.6 22 -5.6 32 32 undefined N/A 30.31 1026 N/A 0 0
3:54 pm 15:54 undefined 51 10.6 22 -5.6 32 32 undefined N/A 30.29 1026 N/A 0 0
4:54 pm 16:54 undefined 51 10.6 22 -5.6 32 32 undefined N/A 30.27 1025 N/A 0 0
5:54 pm 17:54 undefined 51 10.6 22 -5.6 32 32 undefined N/A 30.25 1025 N/A 0 0
6:54 pm 18:54 undefined 50 10 26 -3.3 39 39 undefined N/A 30.25 1024 N/A 0 0
7:54 pm 19:54 undefined 49 9.4 31 -0.6 50 50 undefined N/A 30.24 1024 N/A 0 0
8:54 pm 20:54 undefined 47 8.3 33 0.6 59 59 undefined N/A 30.24 1024 N/A 0 0
9:54 pm 21:54 undefined 47 8.3 34 1.1 61 61 undefined N/A 30.24 1024 N/A 0 0
10:54 pm 22:54 undefined 47 8.3 33 0.6 59 59 undefined N/A 30.24 1024 N/A 0 0
11:54 pm 23:54 undefined 46 7.8 35 1.7 66 66 undefined N/A 30.23 1024 N/A 0 0

Powered by AerisWeather